Time;durP1;ratioP1;P1;durP2;ratioP2;P2;SDS_P1;SDS_P2;PMS_P1;PMS_P2;Temp;Humidity;BMP_temperature;BMP_pressure;BME280_temperature;BME280_humidity;BME280_pressure;Samples;Min_cycle;Max_cycle;Signal;HPM_P1;HPM_P2
2022/11/23 00:01:19;;;;;;;146.83;43.77;;;2.80;1.00;;;;;;5049963;28;20192;-79
2022/11/23 00:03:47;;;;;;;132.43;42.03;;;2.80;1.00;;;;;;5050206;28;20253;-78
2022/11/23 00:09:36;;;;;;;132.10;42.30;;;2.80;1.00;;;;;;5039664;28;20227;-80
2022/11/23 00:12:03;;;;;;;138.83;42.50;;;2.80;1.00;;;;;;5049854;28;20628;-78
2022/11/23 00:14:30;;;;;;;128.43;42.07;;;2.80;1.00;;;;;;5050006;28;20252;-77
2022/11/23 00:16:58;;;;;;;123.07;42.03;;;2.80;1.00;;;;;;5049678;28;20670;-79
2022/11/23 00:19:25;;;;;;;133.73;42.87;;;2.70;1.00;;;;;;5050087;28;20638;-78
2022/11/23 00:21:52;;;;;;;137.83;42.87;;;2.80;1.00;;;;;;5050201;28;20223;-77
2022/11/23 00:24:19;;;;;;;130.93;43.23;;;2.70;1.00;;;;;;5049823;28;20197;-78
2022/11/23 00:26:46;;;;;;;126.43;41.50;;;2.80;1.00;;;;;;5049356;28;20646;-77
2022/11/23 00:29:13;;;;;;;137.50;43.10;;;2.80;1.00;;;;;;5049770;28;20196;-78
2022/11/23 00:31:40;;;;;;;111.83;38.87;;;2.80;1.00;;;;;;5049997;28;20189;-77
2022/11/23 00:34:09;;;;;;;130.83;43.57;;;2.70;1.00;;;;;;5049827;28;20197;-77
2022/11/23 00:36:35;;;;;;;123.57;40.57;;;2.70;1.00;;;;;;5049646;28;20295;-77
2022/11/23 00:39:03;;;;;;;131.07;42.17;;;2.70;1.00;;;;;;5049468;28;20204;-77
2022/11/23 00:41:30;;;;;;;128.20;43.77;;;2.70;30.00;;;;;;5048779;28;20205;-80
2022/11/23 00:43:57;;;;;;;123.70;41.77;;;2.70;99.90;;;;;;5049413;28;20197;-77
2022/11/23 00:46:26;;;;;;;139.10;44.03;;;2.70;99.90;;;;;;5049018;28;20534;-80
2022/11/23 00:48:55;;;;;;;126.77;42.77;;;2.70;99.90;;;;;;5049608;28;20204;-77
2022/11/23 00:51:26;;;;;;;127.23;42.87;;;2.70;99.90;;;;;;5049633;28;20267;-79
2022/11/23 00:53:53;;;;;;;124.07;41.27;;;2.70;99.90;;;;;;5049217;28;20651;-77
2022/11/23 00:56:21;;;;;;;129.63;43.07;;;2.70;1.00;;;;;;5048965;28;20212;-78
2022/11/23 00:58:52;;;;;;;136.57;43.10;;;2.80;99.90;;;;;;5049291;28;20192;-77
2022/11/23 01:01:21;;;;;;;123.20;43.40;;;2.80;99.90;;;;;;5049217;28;20614;-77
2022/11/23 01:03:51;;;;;;;114.83;40.23;;;2.80;99.90;;;;;;5048970;28;20193;-78
2022/11/23 01:06:21;;;;;;;120.23;41.63;;;2.90;99.90;;;;;;5048942;28;20201;-79
2022/11/23 01:08:54;;;;;;;129.00;43.07;;;2.90;99.90;;;;;;5048835;28;20193;-78
2022/11/23 01:11:23;;;;;;;118.40;41.97;;;2.90;99.90;;;;;;5039567;28;20193;-78
2022/11/23 01:13:50;;;;;;;123.53;40.87;;;2.90;99.90;;;;;;5049147;28;20245;-79
2022/11/23 01:16:19;;;;;;;113.47;41.33;;;3.00;99.90;;;;;;5049015;28;20193;-78
2022/11/23 01:18:46;;;;;;;116.50;40.70;;;3.00;24.70;;;;;;5049157;28;20197;-79
2022/11/23 01:21:13;;;;;;;122.77;41.00;;;3.00;99.90;;;;;;5049447;28;20224;-77
2022/11/23 01:23:40;;;;;;;112.87;41.97;;;3.00;43.10;;;;;;5048738;28;20216;-78
2022/11/23 01:26:10;;;;;;;119.23;42.43;;;3.10;2.00;;;;;;5048904;28;20615;-80
2022/11/23 01:28:39;;;;;;;116.70;42.53;;;3.10;1.00;;;;;;5049258;28;20532;-79
2022/11/23 01:31:09;;;;;;;122.13;42.80;;;3.10;1.00;;;;;;5048949;28;20698;-81
2022/11/23 01:33:36;;;;;;;115.73;42.43;;;3.10;1.00;;;;;;5048699;28;20185;-80
2022/11/23 01:36:10;;;;;;;111.30;42.63;;;3.20;1.00;;;;;;5048933;28;20212;-78
2022/11/23 01:38:37;;;;;;;115.03;42.10;;;3.20;1.00;;;;;;5049030;28;20189;-77
2022/11/23 01:41:05;;;;;;;116.13;42.33;;;3.30;1.00;;;;;;5048699;28;20722;-78
2022/11/23 01:43:33;;;;;;;108.10;41.87;;;3.30;1.00;;;;;;5048452;28;20216;-79
2022/11/23 01:46:01;;;;;;;120.20;41.60;;;3.40;1.00;;;;;;5048681;28;20215;-80
2022/11/23 01:48:34;;;;;;;112.77;42.63;;;3.30;99.90;;;;;;5048725;28;20199;-78
2022/11/23 01:51:03;;;;;;;109.23;42.13;;;3.40;99.90;;;;;;5048417;28;20197;-79
2022/11/23 01:53:31;;;;;;;110.13;40.20;;;3.40;99.90;;;;;;5051229;28;20610;-80
2022/11/23 01:56:01;;;;;;;106.10;42.47;;;3.40;99.90;;;;;;5052273;28;20193;-78
2022/11/23 01:58:32;;;;;;;103.57;40.63;;;3.40;99.90;;;;;;5052192;28;20220;-78
2022/11/23 02:01:01;;;;;;;106.90;40.83;;;3.40;99.90;;;;;;5052279;28;20188;-79
2022/11/23 02:03:30;;;;;;;108.03;42.63;;;3.40;99.90;;;;;;5051928;28;20224;-81
2022/11/23 02:06:01;;;;;;;103.30;40.67;;;3.40;99.90;;;;;;5051546;28;20189;-78
2022/11/23 02:08:29;;;;;;;106.37;41.27;;;3.40;99.90;;;;;;5052090;28;20189;-78
2022/11/23 02:10:58;;;;;;;111.97;40.50;;;3.40;99.90;;;;;;5051627;28;20246;-78
2022/11/23 02:13:25;;;;;;;114.73;42.90;;;3.30;99.90;;;;;;5051929;28;20201;-78
2022/11/23 02:15:54;;;;;;;108.57;41.53;;;3.30;99.90;;;;;;5051667;28;20662;-80
2022/11/23 02:18:26;;;;;;;109.47;42.53;;;3.30;99.90;;;;;;5051749;28;20196;-81
2022/11/23 02:20:53;;;;;;;106.60;43.37;;;3.30;99.90;;;;;;5038758;28;20261;-78
2022/11/23 02:23:31;;;;;;;115.33;42.03;;;3.30;99.90;;;;;;5051461;28;20281;-78
2022/11/23 02:28:50;;;;;;;110.70;42.63;;;3.30;99.90;;;;;;5051685;28;20200;-77
2022/11/23 02:31:17;;;;;;;114.93;43.13;;;3.30;99.90;;;;;;5051951;28;20185;-80
2022/11/23 02:33:44;;;;;;;101.07;42.30;;;3.30;99.90;;;;;;5051742;28;20197;-80
2022/11/23 02:36:37;;;;;;;103.97;40.17;;;3.30;99.90;;;;;;5051276;28;20250;-80
2022/11/23 02:39:10;;;;;;;99.83;40.13;;;3.30;1.00;;;;;;5051354;28;20218;-78
2022/11/23 02:41:40;;;;;;;103.23;39.03;;;3.30;99.90;;;;;;5051059;28;20923;-80
2022/11/23 02:44:14;;;;;;;107.43;39.53;;;3.30;99.90;;;;;;5051598;28;20695;-77
2022/11/23 02:46:41;;;;;;;102.97;41.10;;;3.30;99.90;;;;;;5051404;28;20199;-77
2022/11/23 02:49:08;;;;;;;106.93;41.33;;;3.30;99.90;;;;;;5051513;28;20197;-77
2022/11/23 02:51:35;;;;;;;102.07;40.77;;;3.30;99.90;;;;;;5050694;28;20196;-77
2022/11/23 02:54:02;;;;;;;119.47;40.90;;;3.30;99.90;;;;;;5051508;28;20226;-78
2022/11/23 02:56:29;;;;;;;113.73;40.93;;;3.30;99.90;;;;;;5051162;28;20245;-79
2022/11/23 02:58:58;;;;;;;107.47;40.50;;;3.30;99.90;;;;;;5050890;28;20200;-81
2022/11/23 03:01:25;;;;;;;113.20;41.30;;;3.30;99.90;;;;;;5050739;28;20197;-79
2022/11/23 03:03:52;;;;;;;108.13;41.03;;;3.30;99.90;;;;;;5050776;28;20245;-77
2022/11/23 03:06:19;;;;;;;106.80;40.90;;;3.30;99.90;;;;;;5051201;28;20323;-77
2022/11/23 03:08:46;;;;;;;104.07;39.20;;;3.30;99.90;;;;;;5050765;28;20722;-78
2022/11/23 03:11:13;;;;;;;106.27;38.77;;;3.40;99.90;;;;;;5051271;28;20213;-79
2022/11/23 03:13:40;;;;;;;105.17;39.80;;;3.30;99.90;;;;;;5050629;28;20192;-78
2022/11/23 03:16:09;;;;;;;111.70;42.07;;;3.30;99.90;;;;;;5051102;28;20207;-80
2022/11/23 03:18:35;;;;;;;113.80;41.07;;;3.30;99.90;;;;;;5051191;28;20200;-80
2022/11/23 03:21:03;;;;;;;104.97;40.73;;;3.30;99.90;;;;;;5050865;28;20200;-77
2022/11/23 03:23:30;;;;;;;107.80;41.33;;;3.30;99.90;;;;;;5050627;28;20216;-80
2022/11/23 03:25:58;;;;;;;107.03;42.57;;;3.30;99.90;;;;;;5050101;28;20701;-79
2022/11/23 03:28:26;;;;;;;106.40;41.20;;;3.30;99.90;;;;;;5050704;28;20650;-77
2022/11/23 03:30:53;;;;;;;114.13;41.57;;;3.30;99.90;;;;;;5050819;28;20355;-81
2022/11/23 03:33:22;;;;;;;107.80;42.13;;;3.30;99.90;;;;;;5050671;28;20215;-79
2022/11/23 03:35:49;;;;;;;113.73;41.00;;;3.30;99.90;;;;;;5050781;28;20204;-79
2022/11/23 03:38:16;;;;;;;112.63;39.77;;;3.30;99.90;;;;;;5050682;28;20249;-77
2022/11/23 03:40:44;;;;;;;114.43;42.07;;;3.20;99.90;;;;;;5050404;28;20200;-78
2022/11/23 03:43:12;;;;;;;101.93;40.90;;;3.20;99.90;;;;;;5050490;28;20223;-79
2022/11/23 03:45:39;;;;;;;104.53;41.63;;;3.30;99.90;;;;;;5050616;28;20584;-77
2022/11/23 03:48:06;;;;;;;107.90;42.00;;;3.20;99.90;;;;;;5050712;28;20200;-81
2022/11/23 03:50:35;;;;;;;114.70;42.40;;;3.20;99.90;;;;;;5050689;28;20245;-79
2022/11/23 03:53:02;;;;;;;108.67;41.50;;;3.30;99.90;;;;;;5050486;28;20197;-81
2022/11/23 03:55:29;;;;;;;106.13;40.37;;;3.30;99.90;;;;;;5048000;28;20222;-77
2022/11/23 03:57:58;;;;;;;99.73;38.53;;;3.30;99.90;;;;;;5050426;28;20192;-78
2022/11/23 04:00:26;;;;;;;102.13;39.23;;;3.30;1.00;;;;;;5050269;28;20272;-81
2022/11/23 04:02:53;;;;;;;106.33;40.93;;;3.30;99.90;;;;;;5050050;28;20252;-77
2022/11/23 04:05:20;;;;;;;100.67;39.93;;;3.40;99.90;;;;;;5050076;28;20196;-80
2022/11/23 04:07:49;;;;;;;101.27;40.23;;;3.40;99.90;;;;;;5050247;28;20200;-78
2022/11/23 04:10:17;;;;;;;103.77;41.20;;;3.40;99.90;;;;;;5049596;28;20711;-79
2022/11/23 04:12:45;;;;;;;109.43;40.10;;;3.30;99.90;;;;;;5049591;28;20193;-80
2022/11/23 04:15:12;;;;;;;110.93;41.50;;;3.30;99.90;;;;;;5049484;28;20197;-79
2022/11/23 04:17:39;;;;;;;109.83;40.93;;;3.30;99.90;;;;;;5049604;28;20658;-80
2022/11/23 04:20:07;;;;;;;103.20;42.30;;;3.30;99.90;;;;;;5049807;28;20245;-77
2022/11/23 04:22:34;;;;;;;110.17;41.03;;;3.30;99.90;;;;;;5049844;28;20228;-77
2022/11/23 04:25:03;;;;;;;111.03;42.80;;;3.30;99.90;;;;;;5049248;28;20225;-80
2022/11/23 04:27:30;;;;;;;106.87;41.50;;;3.30;99.90;;;;;;5049504;28;20249;-76
2022/11/23 04:29:57;;;;;;;112.60;42.40;;;3.30;99.90;;;;;;5049203;28;20204;-79
2022/11/23 04:32:24;;;;;;;106.50;41.87;;;3.30;99.90;;;;;;5049617;28;20189;-81
2022/11/23 04:34:51;;;;;;;109.17;40.43;;;3.30;99.90;;;;;;5049317;28;20192;-77
2022/11/23 04:37:18;;;;;;;117.97;44.67;;;3.30;1.00;;;;;;5049143;28;20252;-81
2022/11/23 04:39:45;;;;;;;100.80;40.70;;;3.30;1.00;;;;;;5049552;28;20200;-81
2022/11/23 04:42:14;;;;;;;102.50;42.30;;;3.30;99.90;;;;;;5049434;28;20197;-77
2022/11/23 04:44:41;;;;;;;105.03;41.80;;;3.30;99.90;;;;;;5049470;28;20208;-78
2022/11/23 04:47:09;;;;;;;105.43;41.67;;;3.30;1.00;;;;;;5042056;28;20197;-78
2022/11/23 04:49:36;;;;;;;96.80;41.03;;;3.30;1.00;;;;;;5049427;28;20201;-77
2022/11/23 04:52:04;;;;;;;109.53;41.63;;;3.30;1.00;;;;;;5049327;28;20188;-77
2022/11/23 04:54:31;;;;;;;104.73;41.27;;;3.30;1.00;;;;;;5049182;28;20237;-79
2022/11/23 04:56:58;;;;;;;94.50;41.20;;;3.40;1.00;;;;;;5047131;28;20201;-81
2022/11/23 04:59:27;;;;;;;101.17;41.30;;;3.40;1.00;;;;;;5049522;28;20196;-79
2022/11/23 05:01:54;;;;;;;96.63;40.27;;;3.40;1.00;;;;;;5049662;28;20242;-77
2022/11/23 05:04:21;;;;;;;100.50;39.50;;;3.50;1.00;;;;;;5049222;28;20686;-78
2022/11/23 05:06:48;;;;;;;100.63;40.13;;;3.50;1.00;;;;;;5046231;28;20245;-78
2022/11/23 05:09:15;;;;;;;90.27;38.93;;;3.50;1.00;;;;;;5048711;28;20260;-78
2022/11/23 05:11:42;;;;;;;103.03;41.33;;;3.50;1.00;;;;;;5044405;28;20196;-82
2022/11/23 05:14:09;;;;;;;99.90;40.93;;;3.50;1.00;;;;;;5048823;28;20193;-77
2022/11/23 05:16:37;;;;;;;95.27;39.77;;;3.60;1.00;;;;;;5049093;28;20320;-77
2022/11/23 05:19:04;;;;;;;102.87;40.73;;;3.50;1.00;;;;;;5049285;28;20193;-78
2022/11/23 05:21:31;;;;;;;96.47;39.93;;;3.50;1.00;;;;;;5049102;28;20239;-77
2022/11/23 05:23:58;;;;;;;101.43;40.93;;;3.50;1.00;;;;;;5049125;28;20212;-82
2022/11/23 05:26:25;;;;;;;105.50;41.37;;;3.40;1.00;;;;;;5048372;28;20249;-78
2022/11/23 05:28:52;;;;;;;101.50;41.50;;;3.40;1.00;;;;;;5048702;28;20245;-77
2022/11/23 05:31:19;;;;;;;103.27;41.90;;;3.40;1.00;;;;;;5049008;28;20192;-78
2022/11/23 05:33:48;;;;;;;98.77;39.83;;;3.40;1.00;;;;;;5049085;28;20193;-77
2022/11/23 05:36:15;;;;;;;89.23;39.53;;;3.40;1.00;;;;;;5049033;28;20339;-79
2022/11/23 05:38:42;;;;;;;104.80;42.00;;;3.40;1.00;;;;;;5048439;28;20245;-78
2022/11/23 05:41:09;;;;;;;95.87;41.33;;;3.40;1.00;;;;;;5048942;28;20196;-81
2022/11/23 05:43:36;;;;;;;93.97;39.40;;;3.40;1.00;;;;;;5048779;28;20220;-78
2022/11/23 05:46:03;;;;;;;105.60;41.57;;;3.40;1.00;;;;;;5046937;28;20242;-80
2022/11/23 05:48:30;;;;;;;102.60;40.67;;;3.40;1.00;;;;;;5044122;28;20197;-78
2022/11/23 05:50:59;;;;;;;104.00;42.03;;;3.40;1.00;;;;;;5047928;28;20592;-77
2022/11/23 05:53:26;;;;;;;100.27;40.73;;;3.30;1.00;;;;;;5045667;28;20205;-77
2022/11/23 05:55:53;;;;;;;102.57;40.03;;;3.30;1.00;;;;;;5036749;28;20288;-81
2022/11/23 05:58:20;;;;;;;98.77;40.37;;;3.30;1.00;;;;;;5040477;28;20212;-78
2022/11/23 06:00:47;;;;;;;100.63;41.80;;;3.30;1.00;;;;;;5044149;28;20188;-80
2022/11/23 06:03:14;;;;;;;97.20;39.73;;;3.20;1.00;;;;;;5045309;28;20227;-78
2022/11/23 06:05:41;;;;;;;102.37;41.70;;;3.20;1.00;;;;;;5045145;28;20205;-82
2022/11/23 06:08:09;;;;;;;109.47;41.27;;;3.20;1.00;;;;;;5048065;28;20305;-80
2022/11/23 06:10:36;;;;;;;102.70;41.40;;;3.20;3.40;;;;;;5047639;28;20608;-80
2022/11/23 06:13:04;;;;;;;98.93;40.63;;;3.20;24.60;;;;;;5047312;28;20192;-79
2022/11/23 06:15:31;;;;;;;102.70;40.40;;;3.10;17.50;;;;;;5048039;28;20284;-78
2022/11/23 06:18:00;;;;;;;107.43;40.87;;;3.10;1.00;;;;;;5046537;28;20246;-79
2022/11/23 06:20:28;;;;;;;102.17;41.53;;;3.00;1.00;;;;;;5048052;28;20206;-78
2022/11/23 06:22:56;;;;;;;106.60;40.37;;;3.00;1.00;;;;;;5047863;28;20612;-79
2022/11/23 06:25:24;;;;;;;105.90;41.90;;;2.90;1.00;;;;;;5047882;28;20687;-79
2022/11/23 06:27:55;;;;;;;113.90;42.17;;;2.80;1.00;;;;;;5048320;28;20193;-80
2022/11/23 06:30:22;;;;;;;102.97;41.47;;;2.70;99.90;;;;;;5048104;28;20219;-82
2022/11/23 06:32:49;;;;;;;120.67;44.07;;;2.60;1.00;;;;;;5047963;28;20197;-79
2022/11/23 06:35:17;;;;;;;113.80;43.17;;;2.60;43.70;;;;;;5047946;28;20196;-80
2022/11/23 06:37:44;;;;;;;118.03;42.77;;;2.50;99.90;;;;;;5047996;28;20211;-78
2022/11/23 06:40:12;;;;;;;123.07;46.00;;;2.50;1.00;;;;;;5050184;28;20249;-80
2022/11/23 06:42:40;;;;;;;118.30;43.07;;;2.50;1.00;;;;;;5051347;28;20196;-78
2022/11/23 06:45:09;;;;;;;118.17;43.60;;;2.60;1.00;;;;;;5051006;28;20212;-78
2022/11/23 06:47:36;;;;;;;105.30;42.27;;;2.60;1.00;;;;;;5051062;28;20199;-80
2022/11/23 06:50:03;;;;;;;118.03;44.50;;;2.50;1.00;;;;;;5050988;28;20199;-79
2022/11/23 06:52:30;;;;;;;113.90;44.07;;;2.60;1.00;;;;;;5051297;28;20599;-78
2022/11/23 06:54:57;;;;;;;113.23;43.67;;;2.60;1.00;;;;;;5051165;28;20193;-80
2022/11/23 06:57:24;;;;;;;117.50;44.40;;;2.70;1.00;;;;;;5050946;28;20606;-78
2022/11/23 06:59:52;;;;;;;112.33;43.67;;;2.80;1.00;;;;;;5051139;28;20249;-78
2022/11/23 07:02:19;;;;;;;109.40;42.10;;;2.80;1.00;;;;;;5050953;28;20268;-79
2022/11/23 07:04:46;;;;;;;117.97;43.27;;;2.90;1.00;;;;;;5051010;28;20216;-78
2022/11/23 07:07:13;;;;;;;114.00;42.57;;;3.00;1.00;;;;;;5050752;28;20200;-79
2022/11/23 07:09:40;;;;;;;112.10;42.53;;;3.10;99.90;;;;;;5051054;28;20199;-76
2022/11/23 07:12:08;;;;;;;105.20;41.97;;;3.20;99.90;;;;;;5050682;28;20192;-81
2022/11/23 07:14:35;;;;;;;108.30;42.30;;;3.30;99.90;;;;;;5050798;28;20204;-80
2022/11/23 07:17:03;;;;;;;107.73;43.17;;;3.30;99.90;;;;;;5050632;28;20222;-78
2022/11/23 07:19:30;;;;;;;100.67;41.00;;;3.40;99.90;;;;;;5050864;28;20196;-79
2022/11/23 07:21:57;;;;;;;105.23;42.27;;;3.40;99.90;;;;;;5051022;28;20608;-79
2022/11/23 07:24:24;;;;;;;103.67;43.40;;;3.50;99.90;;;;;;5050551;28;20608;-80
2022/11/23 07:26:51;;;;;;;99.27;41.47;;;3.60;99.90;;;;;;5050646;28;20193;-79
2022/11/23 07:29:18;;;;;;;98.53;42.43;;;3.70;99.90;;;;;;5050481;28;20217;-77
2022/11/23 07:31:45;;;;;;;95.53;40.83;;;3.70;99.90;;;;;;5050579;28;20249;-77
2022/11/23 07:34:14;;;;;;;102.13;42.73;;;3.70;99.90;;;;;;5050415;28;20620;-77
2022/11/23 07:36:41;;;;;;;108.13;42.57;;;3.80;99.90;;;;;;5050451;28;20249;-78
2022/11/23 07:39:08;;;;;;;105.70;42.30;;;3.80;99.90;;;;;;5050531;28;20193;-80
2022/11/23 07:41:35;;;;;;;98.90;41.40;;;3.90;99.90;;;;;;5050501;28;20551;-80
2022/11/23 07:44:02;;;;;;;98.70;41.73;;;3.90;99.90;;;;;;5050243;28;20216;-79
2022/11/23 07:46:29;;;;;;;93.73;41.27;;;4.00;99.90;;;;;;5050706;28;20197;-78
2022/11/23 07:49:00;;;;;;;99.40;41.93;;;4.00;99.90;;;;;;5050237;28;20204;-78
2022/11/23 07:51:28;;;;;;;97.63;41.17;;;4.10;99.90;;;;;;5050522;28;20201;-78
2022/11/23 07:53:56;;;;;;;102.13;42.40;;;4.20;93.10;;;;;;5049886;28;20193;-78
2022/11/23 07:56:23;;;;;;;101.57;42.60;;;4.20;27.80;;;;;;5050039;28;20572;-81
2022/11/23 07:58:51;;;;;;;101.33;42.10;;;4.20;1.00;;;;;;5049890;28;20568;-78
2022/11/23 08:01:19;;;;;;;98.27;40.63;;;4.30;1.00;;;;;;5049797;28;20193;-81
2022/11/23 08:03:47;;;;;;;93.87;41.07;;;4.20;1.00;;;;;;5053645;28;20216;-80
2022/11/23 08:06:15;;;;;;;99.37;42.33;;;4.30;1.00;;;;;;5049751;28;20230;-78
2022/11/23 08:08:44;;;;;;;92.17;39.57;;;4.30;1.00;;;;;;5049769;28;20185;-79
2022/11/23 08:11:13;;;;;;;98.67;41.30;;;4.40;1.00;;;;;;5053430;28;20180;-80
2022/11/23 08:13:40;;;;;;;95.17;39.87;;;4.40;1.00;;;;;;5049693;28;20628;-78
2022/11/23 08:16:07;;;;;;;94.23;40.13;;;4.50;1.00;;;;;;5049869;28;20238;-81
2022/11/23 08:18:35;;;;;;;95.43;39.90;;;4.50;1.00;;;;;;5049652;28;20201;-80
2022/11/23 08:21:02;;;;;;;89.50;40.40;;;4.60;1.00;;;;;;5050021;28;20197;-80
2022/11/23 08:23:29;;;;;;;92.30;40.60;;;4.60;1.00;;;;;;5049927;28;20540;-79
2022/11/23 08:25:58;;;;;;;91.53;40.63;;;4.60;1.00;;;;;;5053419;28;20701;-79
2022/11/23 08:28:25;;;;;;;93.17;39.77;;;4.70;1.00;;;;;;5049893;28;20606;-80
2022/11/23 08:30:52;;;;;;;91.63;40.80;;;4.70;1.00;;;;;;5049494;28;20193;-78
2022/11/23 08:33:19;;;;;;;94.67;41.70;;;4.80;1.00;;;;;;5049263;28;20651;-79
2022/11/23 08:35:46;;;;;;;90.83;40.80;;;5.00;1.00;;;;;;5049756;28;20201;-79
2022/11/23 08:38:13;;;;;;;90.40;40.20;;;5.10;1.00;;;;;;5049554;28;20189;-79
2022/11/23 08:40:40;;;;;;;94.47;39.80;;;5.20;1.00;;;;;;5049409;28;20200;-81
2022/11/23 08:43:09;;;;;;;87.30;40.13;;;5.30;1.00;;;;;;5049449;28;20247;-83
2022/11/23 08:45:36;;;;;;;90.17;39.47;;;5.30;1.00;;;;;;5049823;28;20267;-81
2022/11/23 08:48:03;;;;;;;88.80;40.77;;;5.40;1.00;;;;;;5049617;28;20202;-79
2022/11/23 08:50:33;;;;;;;86.67;38.87;;;5.30;99.90;;;;;;5049197;28;20647;-79
2022/11/23 08:53:00;;;;;;;89.73;40.73;;;5.30;99.90;;;;;;5049384;28;20607;-79
2022/11/23 08:55:28;;;;;;;87.13;39.97;;;5.30;99.90;;;;;;5048978;28;20220;-79
2022/11/23 08:57:56;;;;;;;87.10;41.73;;;5.40;99.90;;;;;;5049376;28;20201;-82
2022/11/23 09:00:24;;;;;;;85.40;38.80;;;5.30;99.90;;;;;;5049209;28;20198;-79
2022/11/23 09:02:51;;;;;;;88.00;39.27;;;5.30;99.90;;;;;;5048689;28;20195;-81
2022/11/23 09:05:18;;;;;;;90.20;40.40;;;5.40;99.90;;;;;;5048974;28;20201;-81
2022/11/23 09:07:45;;;;;;;85.47;38.00;;;5.40;99.90;;;;;;5048783;28;20596;-80
2022/11/23 09:10:12;;;;;;;89.27;39.57;;;5.50;99.90;;;;;;5049259;28;20201;-79
2022/11/23 09:12:39;;;;;;;82.97;39.43;;;5.50;99.90;;;;;;5048658;28;20248;-80
2022/11/23 09:15:07;;;;;;;88.47;39.27;;;5.50;99.90;;;;;;5052406;28;20286;-78
2022/11/23 09:17:36;;;;;;;83.53;38.93;;;5.60;99.90;;;;;;5052511;28;20211;-82
2022/11/23 09:20:03;;;;;;;92.60;39.03;;;5.60;99.90;;;;;;5048779;28;20198;-78
2022/11/23 09:22:30;;;;;;;86.83;39.00;;;5.70;99.90;;;;;;5054396;28;20202;-77
2022/11/23 09:24:57;;;;;;;81.10;39.30;;;5.80;99.90;;;;;;5049911;28;20225;-82
2022/11/23 09:27:24;;;;;;;82.57;38.07;;;5.80;99.90;;;;;;5052689;28;20248;-79
2022/11/23 09:29:51;;;;;;;83.83;38.60;;;5.90;1.00;;;;;;5048993;28;20202;-79
2022/11/23 09:32:18;;;;;;;74.67;36.10;;;5.90;1.00;;;;;;5052369;28;20191;-78
2022/11/23 09:34:46;;;;;;;84.77;39.00;;;5.90;1.00;;;;;;5052479;28;20217;-79
2022/11/23 09:37:14;;;;;;;80.73;37.67;;;5.90;1.00;;;;;;5048742;28;20270;-79
2022/11/23 09:39:42;;;;;;;85.20;37.97;;;5.90;1.00;;;;;;5048555;28;20599;-79
2022/11/23 09:42:41;;;;;;;77.13;36.57;;;5.80;1.00;;;;;;5048952;28;20202;-83
2022/11/23 09:45:18;;;;;;;77.00;38.17;;;5.80;1.00;;;;;;5048862;27;20267;-79
2022/11/23 09:48:15;;;;;;;83.63;37.03;;;5.80;1.00;;;;;;5051545;28;20654;-83
2022/11/23 09:50:47;;;;;;;76.50;36.70;;;5.80;1.00;;;;;;5048399;28;20204;-80
2022/11/23 09:53:21;;;;;;;80.97;36.83;;;5.70;1.00;;;;;;5035462;28;20222;-80
2022/11/23 09:55:51;;;;;;;80.10;36.67;;;5.60;1.00;;;;;;5048621;28;20215;-81
2022/11/23 09:58:21;;;;;;;76.87;35.77;;;5.70;1.00;;;;;;5048282;28;20192;-80
2022/11/23 10:00:59;;;;;;;77.53;36.03;;;5.60;1.00;;;;;;5048559;28;20252;-82
2022/11/23 10:03:29;;;;;;;83.03;37.10;;;5.60;1.00;;;;;;5048401;28;20190;-82
2022/11/23 10:06:04;;;;;;;81.70;36.80;;;5.60;1.00;;;;;;5048324;28;20199;-79
2022/11/23 10:08:43;;;;;;;75.63;37.50;;;5.70;1.00;;;;;;5052416;28;20199;-80
2022/11/23 10:11:26;;;;;;;82.10;37.23;;;5.70;1.00;;;;;;5048255;28;20206;-79
2022/11/23 10:14:02;;;;;;;83.23;39.07;;;5.80;1.00;;;;;;5048657;28;20202;-82
2022/11/23 10:16:38;;;;;;;78.50;38.77;;;5.90;1.00;;;;;;5051789;28;20188;-80
2022/11/23 10:19:15;;;;;;;83.47;39.77;;;6.10;1.00;;;;;;5051907;28;20193;-83
2022/11/23 10:21:52;;;;;;;80.40;36.60;;;6.40;1.00;;;;;;5052013;28;20202;-78
2022/11/23 10:24:23;;;;;;;78.17;36.13;;;6.60;99.90;;;;;;5051746;28;20674;-80
2022/11/23 10:26:51;;;;;;;75.13;34.33;;;6.80;99.90;;;;;;5051639;28;20230;-79
2022/11/23 10:29:27;;;;;;;77.33;35.83;;;7.00;99.90;;;;;;5051404;28;20249;-78
2022/11/23 10:31:54;;;;;;;80.57;35.83;;;7.10;99.90;;;;;;5051597;28;20197;-80
2022/11/23 10:34:29;;;;;;;76.03;33.70;;;7.20;99.90;;;;;;5051511;28;20217;-80
2022/11/23 10:36:58;;;;;;;75.83;34.40;;;7.30;85.40;;;;;;5051199;28;20186;-79
2022/11/23 10:39:27;;;;;;;70.63;34.10;;;7.20;1.00;;;;;;5051287;28;20210;-79
2022/11/23 10:41:57;;;;;;;77.00;34.03;;;7.10;1.00;;;;;;5051501;28;20208;-78
2022/11/23 10:44:30;;;;;;;82.33;34.87;;;6.90;1.00;;;;;;5051534;28;20196;-79
2022/11/23 10:46:57;;;;;;;73.17;34.73;;;6.70;1.00;;;;;;5051367;28;20223;-80
2022/11/23 10:49:28;;;;;;;77.40;35.17;;;6.70;1.00;;;;;;5051483;28;20203;-78
2022/11/23 10:51:58;;;;;;;75.60;34.83;;;6.60;1.00;;;;;;5050973;28;20252;-80
2022/11/23 10:54:29;;;;;;;75.57;33.10;;;6.60;1.00;;;;;;5051493;28;20199;-79
2022/11/23 10:56:57;;;;;;;74.40;34.30;;;6.50;1.00;;;;;;5051362;28;20651;-77
2022/11/23 10:59:30;;;;;;;76.30;33.43;;;6.40;1.00;;;;;;5050955;28;20203;-82
2022/11/23 11:02:16;;;;;;;76.70;35.03;;;6.20;1.00;;;;;;5053491;28;20200;-80
2022/11/23 11:04:44;;;;;;;82.00;34.10;;;6.00;1.00;;;;;;5050816;28;20225;-78
2022/11/23 11:07:21;;;;;;;74.27;33.37;;;5.90;1.00;;;;;;5050846;28;20632;-79
2022/11/23 11:09:53;;;;;;;74.57;33.53;;;5.80;17.60;;;;;;5051065;28;20192;-81
2022/11/23 11:12:20;;;;;;;77.30;34.03;;;5.80;31.70;;;;;;5050614;28;20195;-79
2022/11/23 11:15:04;;;;;;;79.03;35.17;;;5.80;89.20;;;;;;5050908;28;20220;-80
2022/11/23 11:17:34;;;;;;;78.50;33.93;;;5.90;99.90;;;;;;5049319;28;20199;-77
2022/11/23 11:20:21;;;;;;;76.30;34.50;;;6.00;99.90;;;;;;5050914;28;20205;-78
2022/11/23 11:22:50;;;;;;;82.17;36.00;;;6.10;1.00;;;;;;5050458;27;20206;-77
2022/11/23 11:25:28;;;;;;;72.73;32.77;;;6.00;1.00;;;;;;5050245;28;20636;-80
2022/11/23 11:27:57;;;;;;;77.40;34.67;;;5.90;1.00;;;;;;5050903;28;20265;-77
2022/11/23 11:30:28;;;;;;;77.40;34.57;;;5.80;1.00;;;;;;5050774;28;20195;-81
2022/11/23 11:33:03;;;;;;;72.60;32.17;;;5.70;32.10;;;;;;5050303;28;20189;-80
2022/11/23 11:35:34;;;;;;;75.33;33.97;;;5.70;99.90;;;;;;5050321;28;20683;-79
2022/11/23 11:38:10;;;;;;;78.93;32.83;;;5.70;60.30;;;;;;5050491;28;20190;-77
2022/11/23 11:40:41;;;;;;;79.03;33.17;;;5.60;22.50;;;;;;5050661;28;20262;-82
2022/11/23 11:43:16;;;;;;;82.43;34.73;;;5.60;27.40;;;;;;5050182;28;20493;-78
2022/11/23 11:45:45;;;;;;;77.63;34.67;;;5.50;78.70;;;;;;5050548;28;20193;-79
2022/11/23 11:48:17;;;;;;;80.17;33.77;;;5.40;90.80;;;;;;5050006;28;20193;-77
2022/11/23 11:50:50;;;;;;;73.20;33.90;;;5.30;99.90;;;;;;5050447;28;20222;-78
2022/11/23 11:53:22;;;;;;;79.87;34.57;;;5.30;99.90;;;;;;5050545;28;20202;-80
2022/11/23 11:55:55;;;;;;;81.27;32.77;;;5.40;99.90;;;;;;5050289;28;20212;-79
2022/11/23 11:58:25;;;;;;;80.17;34.23;;;5.50;99.90;;;;;;5050245;28;20183;-77
2022/11/23 12:00:58;;;;;;;81.83;34.20;;;5.50;99.90;;;;;;5050245;28;20226;-80
2022/11/23 12:03:39;;;;;;;78.67;33.37;;;5.50;99.90;;;;;;5050045;28;20198;-80
2022/11/23 12:06:13;;;;;;;83.37;34.60;;;5.60;99.90;;;;;;5050260;28;20195;-79
2022/11/23 12:08:50;;;;;;;80.40;35.90;;;5.60;99.90;;;;;;5050136;28;20253;-79
2022/11/23 12:11:18;;;;;;;83.97;34.43;;;5.50;99.90;;;;;;5050287;28;20611;-77
2022/11/23 12:13:46;;;;;;;84.47;35.03;;;5.50;99.90;;;;;;5049892;28;20280;-79
2022/11/23 12:16:21;;;;;;;86.93;35.87;;;5.50;99.90;;;;;;5049925;28;20301;-79
2022/11/23 12:19:09;;;;;;;82.97;34.50;;;5.50;99.90;;;;;;5050120;28;20192;-77
2022/11/23 12:22:02;;;;;;;80.73;36.13;;;5.50;99.90;;;;;;5049970;28;20204;-78
2022/11/23 12:24:47;;;;;;;81.27;34.33;;;5.50;99.90;;;;;;5049477;28;20190;-78
2022/11/23 12:27:25;;;;;;;79.00;33.53;;;5.50;99.90;;;;;;5049780;28;20200;-77
2022/11/23 12:30:20;;;;;;;78.80;33.80;;;5.40;99.90;;;;;;5049867;28;20229;-78
2022/11/23 12:33:11;;;;;;;81.73;33.83;;;5.40;99.90;;;;;;5050049;28;20197;-78
2022/11/23 12:35:52;;;;;;;79.97;34.27;;;5.40;99.90;;;;;;5049227;28;20243;-78
2022/11/23 12:38:30;;;;;;;74.37;33.20;;;5.50;99.90;;;;;;5049178;28;20262;-76
2022/11/23 12:41:14;;;;;;;78.53;33.27;;;5.50;99.90;;;;;;5049241;28;20667;-78
2022/11/23 12:43:58;;;;;;;79.00;33.10;;;5.60;99.90;;;;;;5049359;28;20631;-77
2022/11/23 12:46:35;;;;;;;73.97;32.13;;;5.60;99.90;;;;;;5049646;28;20198;-80
2022/11/23 12:49:14;;;;;;;85.50;34.40;;;5.60;99.90;;;;;;5049320;28;20597;-77
2022/11/23 12:51:51;;;;;;;80.10;33.00;;;5.60;99.90;;;;;;5049277;28;20604;-78
2022/11/23 12:54:34;;;;;;;81.43;32.30;;;5.50;99.90;;;;;;5049437;28;20205;-77